Time;durP1;ratioP1;P1;durP2;ratioP2;P2;SDS_P1;SDS_P2;PMS_P1;PMS_P2;Temp;Humidity;BMP_temperature;BMP_pressure;BME280_temperature;BME280_humidity;BME280_pressure;Samples;Min_cycle;Max_cycle;Signal;HPM_P1;HPM_P2
2021/07/05 00:01:56;;;;;;;2.87;2.10;;;18.60;81.10;;;;;;5062069;28;20463;-45
2021/07/05 00:04:23;;;;;;;1.90;1.80;;;18.60;81.20;;;;;;5064011;28;20466;-44
2021/07/05 00:06:50;;;;;;;2.07;1.83;;;18.60;81.30;;;;;;5060188;28;20951;-45
2021/07/05 00:09:16;;;;;;;4.67;2.13;;;18.50;81.30;;;;;;5063739;28;20488;-44
2021/07/05 00:11:43;;;;;;;3.20;2.10;;;18.50;81.40;;;;;;5062755;28;20462;-45
2021/07/05 00:14:10;;;;;;;3.30;2.10;;;18.50;81.40;;;;;;5062820;28;20454;-44
2021/07/05 00:16:37;;;;;;;3.80;2.50;;;18.40;81.50;;;;;;5059738;28;20537;-44
2021/07/05 00:19:04;;;;;;;3.03;2.23;;;18.40;81.60;;;;;;5061802;28;20608;-44
2021/07/05 00:21:31;;;;;;;2.57;2.33;;;18.40;81.60;;;;;;5063841;28;20470;-45
2021/07/05 00:23:58;;;;;;;4.63;1.90;;;18.40;81.60;;;;;;5062115;28;20466;-45
2021/07/05 00:26:25;;;;;;;5.07;1.63;;;18.40;81.60;;;;;;5061996;28;20458;-45
2021/07/05 00:28:51;;;;;;;2.07;1.87;;;18.40;81.80;;;;;;5063217;28;20496;-44
2021/07/05 00:31:18;;;;;;;3.20;1.97;;;18.40;81.60;;;;;;5060172;28;20454;-44
2021/07/05 00:33:46;;;;;;;8.53;2.37;;;18.30;81.80;;;;;;5059719;28;20990;-44
2021/07/05 00:36:13;;;;;;;3.80;2.23;;;18.30;81.80;;;;;;5062412;28;20464;-45
2021/07/05 00:38:40;;;;;;;3.33;2.40;;;18.30;81.80;;;;;;5063243;28;20473;-44
2021/07/05 00:41:07;;;;;;;3.67;2.07;;;18.30;81.80;;;;;;5061449;28;20975;-45
2021/07/05 00:43:34;;;;;;;4.40;2.30;;;18.30;81.80;;;;;;5058123;28;20519;-45
2021/07/05 00:46:00;;;;;;;7.30;2.33;;;18.20;81.80;;;;;;5059572;28;20467;-44
2021/07/05 00:48:27;;;;;;;3.00;2.00;;;18.20;81.80;;;;;;5059723;28;20484;-45
2021/07/05 00:50:54;;;;;;;2.70;1.97;;;18.20;81.90;;;;;;5057327;28;20966;-45
2021/07/05 00:53:22;;;;;;;3.77;2.37;;;18.20;81.80;;;;;;5060322;28;20470;-44
2021/07/05 00:55:50;;;;;;;4.43;2.47;;;18.20;81.80;;;;;;5056790;28;20451;-44
2021/07/05 00:58:20;;;;;;;3.10;2.10;;;18.20;81.80;;;;;;5059215;28;20466;-45
2021/07/05 01:00:47;;;;;;;2.00;1.90;;;18.10;81.90;;;;;;5086639;28;20460;-45
2021/07/05 01:03:13;;;;;;;3.50;2.27;;;18.10;81.90;;;;;;5060213;28;20982;-44
2021/07/05 01:05:40;;;;;;;2.77;2.00;;;18.10;82.00;;;;;;5091335;28;20583;-44
2021/07/05 01:08:07;;;;;;;2.47;2.27;;;18.10;82.00;;;;;;5058863;28;20468;-45
2021/07/05 01:10:34;;;;;;;3.63;2.60;;;18.10;82.10;;;;;;5060530;28;20465;-44
2021/07/05 01:13:02;;;;;;;2.90;2.10;;;18.10;82.10;;;;;;5055195;28;20489;-44
2021/07/05 01:15:31;;;;;;;5.43;2.37;;;18.10;82.20;;;;;;5056044;28;20481;-44
2021/07/05 01:18:03;;;;;;;2.90;1.73;;;18.10;82.30;;;;;;5061272;28;21120;-44
2021/07/05 01:20:32;;;;;;;2.70;1.90;;;18.10;82.40;;;;;;5063713;28;20533;-44
2021/07/05 01:22:59;;;;;;;2.90;1.73;;;18.10;82.50;;;;;;5091091;27;20485;-44
2021/07/05 01:25:28;;;;;;;1.93;1.83;;;18.10;82.60;;;;;;5059435;28;21014;-44
2021/07/05 01:27:56;;;;;;;3.47;2.13;;;18.10;82.60;;;;;;5061811;28;20469;-44
2021/07/05 01:30:24;;;;;;;2.30;2.07;;;18.10;82.50;;;;;;5058352;28;20477;-44
2021/07/05 01:32:55;;;;;;;2.20;2.00;;;18.10;82.50;;;;;;5057587;28;20952;-45
2021/07/05 01:35:22;;;;;;;2.63;2.20;;;18.10;82.60;;;;;;5054685;28;20468;-44
2021/07/05 01:37:49;;;;;;;5.03;2.40;;;18.10;82.60;;;;;;5063086;28;20473;-44
2021/07/05 01:40:19;;;;;;;2.63;2.03;;;18.10;82.50;;;;;;5088480;28;20457;-45
2021/07/05 01:42:51;;;;;;;2.17;1.50;;;18.10;82.50;;;;;;5057861;28;20465;-45
2021/07/05 01:45:20;;;;;;;2.90;2.13;;;18.10;82.50;;;;;;5060105;28;20458;-45
2021/07/05 01:47:47;;;;;;;3.23;2.63;;;18.20;82.50;;;;;;5061462;28;20467;-45
2021/07/05 01:50:14;;;;;;;3.50;2.17;;;18.10;82.60;;;;;;5061965;28;20953;-45
2021/07/05 01:52:41;;;;;;;3.07;2.00;;;18.10;82.60;;;;;;5046597;28;20466;-45
2021/07/05 01:55:09;;;;;;;2.60;2.40;;;18.10;82.60;;;;;;5058799;28;22080;-45
2021/07/05 01:57:36;;;;;;;2.80;2.00;;;18.10;82.60;;;;;;5061537;28;20459;-45
2021/07/05 02:00:10;;;;;;;2.00;1.80;;;18.10;82.60;;;;;;5057730;28;20461;-45
2021/07/05 02:02:38;;;;;;;4.80;2.87;;;18.10;82.60;;;;;;5057856;28;20821;-45
2021/07/05 02:05:09;;;;;;;3.77;2.43;;;18.20;82.70;;;;;;5076968;28;20458;-45
2021/07/05 02:07:36;;;;;;;2.80;2.40;;;18.20;82.70;;;;;;5056782;28;21059;-45
2021/07/05 02:10:07;;;;;;;4.23;2.10;;;18.10;82.80;;;;;;5074880;28;20490;-45
2021/07/05 02:12:35;;;;;;;4.07;2.53;;;18.10;82.90;;;;;;5060731;28;20965;-44
2021/07/05 02:15:06;;;;;;;5.53;2.37;;;18.10;82.90;;;;;;5063141;28;20445;-45
2021/07/05 02:17:33;;;;;;;6.57;2.70;;;18.10;82.90;;;;;;5064693;28;20462;-45
2021/07/05 02:20:00;;;;;;;3.40;2.80;;;18.10;83.00;;;;;;5064319;28;20862;-45
2021/07/05 02:22:27;;;;;;;2.50;2.27;;;18.10;82.90;;;;;;5062063;28;20959;-45
2021/07/05 02:24:54;;;;;;;2.77;2.30;;;18.10;82.80;;;;;;5066747;28;20943;-46
2021/07/05 02:27:20;;;;;;;3.47;2.10;;;18.10;82.90;;;;;;5063746;28;20830;-44
2021/07/05 02:29:47;;;;;;;3.83;2.47;;;18.10;83.00;;;;;;5062045;28;20504;-44
2021/07/05 02:32:14;;;;;;;6.00;2.47;;;18.10;83.00;;;;;;5066966;28;20985;-44
2021/07/05 02:34:41;;;;;;;2.60;2.20;;;18.10;83.00;;;;;;5063327;28;20516;-44
2021/07/05 02:37:07;;;;;;;2.40;1.90;;;18.10;83.10;;;;;;5090178;28;20462;-43
2021/07/05 02:39:34;;;;;;;2.80;2.37;;;18.10;83.10;;;;;;5067567;28;20548;-44
2021/07/05 02:42:01;;;;;;;4.93;2.30;;;18.10;83.10;;;;;;5063400;28;20458;-44
2021/07/05 02:44:30;;;;;;;5.73;2.93;;;18.10;82.90;;;;;;5060722;28;20460;-44
2021/07/05 02:46:57;;;;;;;2.80;2.07;;;18.10;82.90;;;;;;5060742;28;20815;-44
2021/07/05 02:49:24;;;;;;;4.20;2.43;;;18.10;82.90;;;;;;5059231;28;20577;-44
2021/07/05 02:51:50;;;;;;;4.87;2.20;;;18.10;82.90;;;;;;5061795;28;20464;-44
2021/07/05 02:54:17;;;;;;;5.80;2.60;;;18.00;83.00;;;;;;5060976;28;20468;-44
2021/07/05 02:56:44;;;;;;;3.90;2.60;;;18.10;83.10;;;;;;5063608;28;20467;-44
2021/07/05 02:59:10;;;;;;;4.20;2.23;;;18.10;83.10;;;;;;5062252;28;20472;-44
2021/07/05 03:01:37;;;;;;;4.07;2.50;;;18.10;83.10;;;;;;5059797;28;20472;-44
2021/07/05 03:04:04;;;;;;;2.53;2.33;;;18.10;83.10;;;;;;5060511;28;20463;-44
2021/07/05 03:06:31;;;;;;;3.40;2.07;;;18.10;83.10;;;;;;5062496;28;20461;-44
2021/07/05 03:08:58;;;;;;;3.67;2.40;;;18.10;83.10;;;;;;5092020;28;20489;-44
2021/07/05 03:11:25;;;;;;;4.83;2.27;;;18.10;83.10;;;;;;5058642;28;20468;-44
2021/07/05 03:13:51;;;;;;;3.17;1.90;;;18.10;83.10;;;;;;5064592;28;20817;-44
2021/07/05 03:16:18;;;;;;;5.10;2.77;;;18.10;83.00;;;;;;5067460;28;20461;-44
2021/07/05 03:18:45;;;;;;;6.13;2.67;;;18.10;83.10;;;;;;5059463;28;20517;-44
2021/07/05 03:21:12;;;;;;;5.60;2.37;;;18.10;83.10;;;;;;5061347;28;20462;-45
2021/07/05 03:23:38;;;;;;;2.53;2.30;;;18.10;83.20;;;;;;5062140;28;20462;-44
2021/07/05 03:26:05;;;;;;;3.50;2.27;;;18.10;83.20;;;;;;5060842;28;20472;-44
2021/07/05 03:28:32;;;;;;;3.90;2.50;;;18.10;83.30;;;;;;5066486;28;20450;-44
2021/07/05 03:31:00;;;;;;;4.10;2.30;;;18.10;83.40;;;;;;5059918;28;20488;-44
2021/07/05 03:33:26;;;;;;;4.70;2.70;;;18.10;83.40;;;;;;5062335;28;20468;-44
2021/07/05 03:35:53;;;;;;;4.03;2.97;;;18.20;83.40;;;;;;5062422;28;20915;-44
2021/07/05 03:38:20;;;;;;;5.17;2.40;;;18.20;83.50;;;;;;5058805;28;20458;-44
2021/07/05 03:40:48;;;;;;;4.87;3.07;;;18.20;83.50;;;;;;5057984;28;20458;-44
2021/07/05 03:43:15;;;;;;;3.93;2.70;;;18.20;83.50;;;;;;5064738;28;20474;-44
2021/07/05 03:45:43;;;;;;;5.70;3.00;;;18.20;83.60;;;;;;5060235;28;20553;-44
2021/07/05 03:48:15;;;;;;;2.87;2.43;;;18.20;83.60;;;;;;5066727;28;20477;-44
2021/07/05 03:50:41;;;;;;;6.20;2.03;;;18.20;83.70;;;;;;5060832;28;20483;-44
2021/07/05 03:53:08;;;;;;;3.40;2.87;;;18.20;83.80;;;;;;5065328;28;20805;-44
2021/07/05 03:55:36;;;;;;;4.40;2.73;;;18.20;83.80;;;;;;5063994;28;20466;-44
2021/07/05 03:58:04;;;;;;;5.47;2.30;;;18.20;83.80;;;;;;5088904;28;20960;-44
2021/07/05 04:00:35;;;;;;;4.23;3.03;;;18.20;83.70;;;;;;5060664;28;20458;-44
2021/07/05 04:03:02;;;;;;;5.63;3.00;;;18.20;83.80;;;;;;5061956;28;20462;-44
2021/07/05 04:05:29;;;;;;;5.73;2.63;;;18.30;83.80;;;;;;5059188;28;20494;-44
2021/07/05 04:07:57;;;;;;;3.30;2.50;;;18.30;83.80;;;;;;5061869;28;20469;-44
2021/07/05 04:10:26;;;;;;;3.53;3.13;;;18.30;83.80;;;;;;5061210;28;20496;-44
2021/07/05 04:12:53;;;;;;;5.50;2.87;;;18.30;83.90;;;;;;5062312;28;20466;-44
2021/07/05 04:15:20;;;;;;;3.83;2.37;;;18.30;84.00;;;;;;5063698;28;20664;-44
2021/07/05 04:17:47;;;;;;;4.03;2.63;;;18.30;84.10;;;;;;5059044;28;20478;-45
2021/07/05 04:20:18;;;;;;;5.80;2.90;;;18.40;84.20;;;;;;5059963;28;20469;-44
2021/07/05 04:22:45;;;;;;;3.70;2.60;;;18.40;84.00;;;;;;5058009;28;20470;-44
2021/07/05 04:25:15;;;;;;;3.50;2.30;;;18.40;84.10;;;;;;5065470;28;20830;-44
2021/07/05 04:27:47;;;;;;;3.67;2.40;;;18.40;84.20;;;;;;5059192;28;20729;-44
2021/07/05 04:30:15;;;;;;;7.93;2.53;;;18.40;84.30;;;;;;5059366;28;20490;-45
2021/07/05 04:32:43;;;;;;;4.90;2.60;;;18.40;84.40;;;;;;5063742;28;20461;-45
2021/07/05 04:35:15;;;;;;;3.60;2.60;;;18.40;84.40;;;;;;5057465;28;20487;-45
2021/07/05 04:37:43;;;;;;;2.80;2.60;;;18.40;84.50;;;;;;5058279;28;20469;-46
2021/07/05 04:40:17;;;;;;;3.57;2.80;;;18.40;84.50;;;;;;5058275;28;20491;-45
2021/07/05 04:42:45;;;;;;;2.60;2.30;;;18.40;84.60;;;;;;5059585;28;20455;-46
2021/07/05 04:45:14;;;;;;;3.03;2.73;;;18.40;84.60;;;;;;5060744;28;20464;-45
2021/07/05 04:47:42;;;;;;;5.00;3.53;;;18.40;84.50;;;;;;5057985;28;20812;-46
2021/07/05 04:50:12;;;;;;;3.03;2.73;;;18.50;84.50;;;;;;5059025;28;20489;-45
2021/07/05 04:52:39;;;;;;;4.30;2.60;;;18.50;84.70;;;;;;5060103;28;20940;-45
2021/07/05 04:55:08;;;;;;;3.80;2.70;;;18.50;84.90;;;;;;5060411;28;20467;-46
2021/07/05 04:57:35;;;;;;;4.33;3.07;;;18.50;84.90;;;;;;5057485;28;20495;-45
2021/07/05 05:00:12;;;;;;;4.13;2.70;;;18.50;85.10;;;;;;5088494;28;20971;-45
2021/07/05 05:02:49;;;;;;;3.10;2.03;;;18.60;85.20;;;;;;5058121;28;20533;-45
2021/07/05 05:05:16;;;;;;;5.83;2.50;;;18.60;85.40;;;;;;5061218;28;20458;-45
2021/07/05 05:07:43;;;;;;;4.50;2.50;;;18.60;85.50;;;;;;5062644;28;20487;-45
2021/07/05 05:10:11;;;;;;;6.90;2.80;;;18.60;85.60;;;;;;5063197;28;20493;-45
2021/07/05 05:12:38;;;;;;;2.97;2.67;;;18.60;85.80;;;;;;5058993;28;20472;-45
2021/07/05 05:15:07;;;;;;;3.50;2.60;;;18.70;86.00;;;;;;5058039;28;20553;-45
2021/07/05 05:17:34;;;;;;;4.73;2.57;;;18.70;85.80;;;;;;5059711;28;20462;-45
2021/07/05 05:20:02;;;;;;;6.33;2.90;;;18.70;85.70;;;;;;5059319;28;20467;-45
2021/07/05 05:22:29;;;;;;;3.37;2.50;;;18.70;85.80;;;;;;5058933;28;20454;-45
2021/07/05 05:24:55;;;;;;;5.07;2.53;;;18.70;86.00;;;;;;5058316;28;20457;-45
2021/07/05 05:27:22;;;;;;;3.73;2.60;;;18.70;86.20;;;;;;5058585;28;20450;-45
2021/07/05 05:29:49;;;;;;;3.20;2.53;;;18.70;86.30;;;;;;5058949;28;20478;-45
2021/07/05 05:32:16;;;;;;;5.10;2.40;;;18.70;86.40;;;;;;5055254;28;20443;-45
2021/07/05 05:34:43;;;;;;;3.30;2.77;;;18.70;86.50;;;;;;5057517;28;20450;-45
2021/07/05 05:37:10;;;;;;;6.07;3.23;;;18.70;86.60;;;;;;5057890;28;20447;-45
2021/07/05 05:39:36;;;;;;;4.40;2.83;;;18.70;86.60;;;;;;5056614;28;20465;-45
2021/07/05 05:42:03;;;;;;;5.63;3.13;;;18.70;86.70;;;;;;5058334;28;20453;-45
2021/07/05 05:44:31;;;;;;;4.40;3.23;;;18.80;86.70;;;;;;5056821;28;20473;-45
2021/07/05 05:46:58;;;;;;;3.20;2.90;;;18.80;86.80;;;;;;5061527;28;20531;-46
2021/07/05 05:49:25;;;;;;;3.50;3.20;;;18.80;86.80;;;;;;5061791;28;20571;-45
2021/07/05 05:51:55;;;;;;;6.20;3.13;;;18.80;86.80;;;;;;5062751;28;20453;-45
2021/07/05 05:54:24;;;;;;;4.10;2.93;;;18.80;86.80;;;;;;5087317;28;20481;-45
2021/07/05 05:56:53;;;;;;;3.70;3.13;;;18.80;86.80;;;;;;5060909;28;20472;-45
2021/07/05 05:59:20;;;;;;;4.50;3.67;;;18.90;86.80;;;;;;5058103;28;20442;-45
2021/07/05 06:01:50;;;;;;;2.93;2.63;;;18.90;86.80;;;;;;5060951;28;20452;-45
2021/07/05 06:04:21;;;;;;;3.67;2.60;;;19.00;86.60;;;;;;5057620;28;20527;-45
2021/07/05 06:06:48;;;;;;;3.33;2.93;;;19.00;86.40;;;;;;5055272;28;20459;-45
2021/07/05 06:09:15;;;;;;;3.07;2.77;;;19.00;86.10;;;;;;5091928;28;20502;-45
2021/07/05 06:11:42;;;;;;;3.80;3.23;;;19.00;86.10;;;;;;5058372;28;20823;-45
2021/07/05 06:14:11;;;;;;;4.13;3.03;;;19.00;86.20;;;;;;5061893;28;20936;-45
2021/07/05 06:16:38;;;;;;;2.93;2.67;;;19.00;86.30;;;;;;5051206;28;20954;-45
2021/07/05 06:19:05;;;;;;;4.57;3.57;;;19.00;86.40;;;;;;5060448;28;20572;-45
2021/07/05 06:21:33;;;;;;;4.47;3.37;;;19.10;86.40;;;;;;5058624;28;20458;-46
2021/07/05 06:24:00;;;;;;;3.73;2.77;;;19.00;86.20;;;;;;5055153;28;20820;-45
2021/07/05 06:26:27;;;;;;;4.43;3.10;;;19.00;86.40;;;;;;5059246;28;20466;-46
2021/07/05 06:28:58;;;;;;;5.10;3.00;;;19.10;86.40;;;;;;5061752;28;20457;-45
2021/07/05 06:31:25;;;;;;;5.00;2.40;;;19.10;86.20;;;;;;5059815;28;20484;-45
2021/07/05 06:33:52;;;;;;;3.33;2.30;;;19.10;86.20;;;;;;5059027;28;20663;-45
2021/07/05 06:36:18;;;;;;;4.03;2.47;;;19.10;86.30;;;;;;5061932;28;20835;-45
2021/07/05 06:38:45;;;;;;;4.30;3.27;;;19.10;86.40;;;;;;5057380;28;20519;-45
2021/07/05 06:41:12;;;;;;;4.73;3.20;;;19.10;86.50;;;;;;5060152;28;20465;-45
2021/07/05 06:43:39;;;;;;;3.80;2.77;;;19.10;86.60;;;;;;5060196;28;20453;-44
2021/07/05 06:46:08;;;;;;;6.50;2.80;;;19.10;86.60;;;;;;5064082;28;20468;-45
2021/07/05 06:48:35;;;;;;;4.27;3.20;;;19.20;86.70;;;;;;5062404;28;20467;-45
2021/07/05 06:51:02;;;;;;;4.57;3.37;;;19.20;86.60;;;;;;5058055;28;20486;-45
2021/07/05 06:53:29;;;;;;;4.13;2.93;;;19.20;86.50;;;;;;5054169;28;21065;-45
2021/07/05 06:55:56;;;;;;;4.07;3.07;;;19.20;86.50;;;;;;5052121;28;20785;-45
2021/07/05 06:58:23;;;;;;;4.00;3.00;;;19.20;86.40;;;;;;5056821;28;20465;-45
2021/07/05 07:00:50;;;;;;;5.53;3.60;;;19.20;86.50;;;;;;5055197;28;20463;-45
2021/07/05 07:03:16;;;;;;;5.03;3.40;;;19.20;86.50;;;;;;5059039;28;20455;-45
2021/07/05 07:05:43;;;;;;;3.53;3.27;;;19.30;86.20;;;;;;5059019;28;20981;-45
2021/07/05 07:08:11;;;;;;;6.60;3.70;;;19.30;86.20;;;;;;5054337;28;20469;-44
2021/07/05 07:10:38;;;;;;;5.43;3.43;;;19.30;85.90;;;;;;5056979;28;20836;-46
2021/07/05 07:13:05;;;;;;;5.27;4.10;;;19.30;85.80;;;;;;5059497;28;20445;-44
2021/07/05 07:15:54;;;;;;;4.13;3.73;;;19.30;86.20;;;;;;5061081;28;20504;-47
2021/07/05 07:20:49;;;;;;;6.27;3.40;;;19.30;86.20;;;;;;5060883;28;20843;-43
2021/07/05 07:23:15;;;;;;;4.63;3.47;;;19.40;85.80;;;;;;5063182;28;20689;-44
2021/07/05 07:25:42;;;;;;;4.23;3.87;;;19.40;86.00;;;;;;5064088;28;20449;-43
2021/07/05 07:28:09;;;;;;;5.03;4.57;;;19.30;86.20;;;;;;5061617;28;20457;-43
2021/07/05 07:30:36;;;;;;;4.83;4.10;;;19.40;86.20;;;;;;5060136;28;21044;-43
2021/07/05 07:33:03;;;;;;;4.57;3.43;;;19.40;86.20;;;;;;5058046;28;20562;-43
2021/07/05 07:35:29;;;;;;;8.70;4.13;;;19.40;85.90;;;;;;5061863;28;20807;-43
2021/07/05 07:37:56;;;;;;;4.47;3.70;;;19.50;85.50;;;;;;5061007;28;20831;-43
2021/07/05 07:40:29;;;;;;;7.80;4.30;;;19.50;85.70;;;;;;5062279;28;20449;-44
2021/07/05 07:42:56;;;;;;;5.10;4.60;;;19.50;85.20;;;;;;5062167;28;20492;-44
2021/07/05 07:45:23;;;;;;;5.13;4.60;;;19.60;85.20;;;;;;5059838;28;20841;-44
2021/07/05 07:47:50;;;;;;;5.60;5.10;;;19.60;84.90;;;;;;5060183;28;20477;-44
2021/07/05 07:50:21;;;;;;;8.40;4.57;;;19.60;84.70;;;;;;5060401;28;20486;-43
2021/07/05 07:52:47;;;;;;;3.97;3.67;;;19.70;84.60;;;;;;5057549;28;20458;-44
2021/07/05 07:55:16;;;;;;;4.07;3.70;;;19.70;84.70;;;;;;5062010;28;20466;-43
2021/07/05 07:57:43;;;;;;;4.67;3.93;;;19.70;84.90;;;;;;5091013;27;20454;-44
2021/07/05 08:00:13;;;;;;;4.30;3.90;;;19.80;84.80;;;;;;5059683;28;20466;-43
2021/07/05 08:02:46;;;;;;;4.40;3.77;;;19.80;84.20;;;;;;5059218;28;20481;-44
2021/07/05 08:05:14;;;;;;;5.70;3.67;;;19.90;83.70;;;;;;5060528;28;20468;-43
2021/07/05 08:07:41;;;;;;;4.80;4.30;;;20.00;82.60;;;;;;5091732;28;20448;-45
2021/07/05 08:10:10;;;;;;;4.70;4.20;;;20.00;81.50;;;;;;5056929;28;20494;-44
2021/07/05 08:12:40;;;;;;;4.30;3.90;;;20.00;82.20;;;;;;5059433;28;20465;-44
2021/07/05 08:15:08;;;;;;;4.40;4.00;;;20.20;82.20;;;;;;5062150;28;21012;-44
2021/07/05 08:17:35;;;;;;;6.60;5.90;;;20.20;81.80;;;;;;5087564;27;20482;-44
2021/07/05 08:20:04;;;;;;;4.37;3.70;;;20.30;81.80;;;;;;5056148;28;20467;-43
2021/07/05 08:22:31;;;;;;;4.50;4.17;;;20.50;80.20;;;;;;5061925;28;20453;-43
2021/07/05 08:24:58;;;;;;;5.20;4.70;;;20.60;78.60;;;;;;5058804;28;20541;-43
2021/07/05 08:27:25;;;;;;;5.10;4.57;;;20.70;78.80;;;;;;5061153;28;20466;-44
2021/07/05 08:29:52;;;;;;;4.50;4.10;;;20.80;79.10;;;;;;5055152;28;20458;-44
2021/07/05 08:32:19;;;;;;;5.67;4.07;;;21.00;78.20;;;;;;5057905;28;20457;-44
2021/07/05 08:34:46;;;;;;;4.73;4.17;;;21.10;77.60;;;;;;5087162;28;20455;-44
2021/07/05 08:37:12;;;;;;;4.10;3.80;;;21.20;76.40;;;;;;5068896;28;20437;-44
2021/07/05 08:39:39;;;;;;;6.33;4.00;;;21.20;76.90;;;;;;5058989;28;20460;-44
2021/07/05 08:42:07;;;;;;;3.93;3.63;;;21.30;76.20;;;;;;5089779;28;20454;-44
2021/07/05 08:44:34;;;;;;;5.30;3.40;;;21.40;76.10;;;;;;5061418;28;20469;-45
2021/07/05 08:47:03;;;;;;;4.37;4.00;;;21.50;74.70;;;;;;5063066;28;20861;-45
2021/07/05 08:49:30;;;;;;;4.43;4.03;;;21.70;74.00;;;;;;5059768;28;20462;-44
2021/07/05 08:51:56;;;;;;;3.40;3.10;;;21.80;73.30;;;;;;5059813;28;20488;-44
2021/07/05 08:54:23;;;;;;;3.63;3.20;;;21.90;72.60;;;;;;5062459;28;20472;-45
2021/07/05 08:56:50;;;;;;;3.73;3.37;;;21.90;72.70;;;;;;5061080;28;20923;-45
2021/07/05 08:59:17;;;;;;;5.07;3.50;;;22.00;72.10;;;;;;5064205;28;20458;-45
2021/07/05 09:01:45;;;;;;;4.40;3.83;;;22.00;71.30;;;;;;5064483;28;20461;-44
2021/07/05 09:04:13;;;;;;;3.20;2.90;;;22.10;70.40;;;;;;5066903;28;20452;-44
2021/07/05 09:07:05;;;;;;;3.37;2.80;;;22.20;70.10;;;;;;5059164;28;20461;-45
2021/07/05 09:09:33;;;;;;;2.53;2.33;;;22.20;68.30;;;;;;5060215;28;20438;-44
2021/07/05 09:12:08;;;;;;;3.17;2.10;;;22.20;68.00;;;;;;5061247;28;20486;-45
2021/07/05 09:14:37;;;;;;;2.57;2.37;;;22.20;67.50;;;;;;5062108;28;20453;-45
2021/07/05 09:17:09;;;;;;;2.60;2.40;;;22.10;68.10;;;;;;5059367;28;20457;-45
2021/07/05 09:19:38;;;;;;;2.50;2.30;;;22.20;67.40;;;;;;5061694;28;20878;-44
2021/07/05 09:22:08;;;;;;;2.73;2.30;;;22.20;67.10;;;;;;5059996;28;20479;-45
2021/07/05 09:24:43;;;;;;;5.40;3.37;;;22.20;67.60;;;;;;5056697;28;20532;-44
2021/07/05 09:27:24;;;;;;;3.47;3.07;;;22.20;68.70;;;;;;5057081;28;20529;-44
2021/07/05 09:29:51;;;;;;;3.10;2.90;;;22.10;69.30;;;;;;5063958;28;20801;-44
2021/07/05 09:32:29;;;;;;;3.23;3.03;;;22.10;69.40;;;;;;5056455;28;21106;-44
2021/07/05 09:34:56;;;;;;;2.97;2.73;;;22.20;68.70;;;;;;5081634;28;20461;-44
2021/07/05 09:37:33;;;;;;;3.47;3.03;;;22.10;69.20;;;;;;5055549;28;20453;-44
2021/07/05 09:40:02;;;;;;;3.80;3.27;;;22.00;69.20;;;;;;5060842;28;20450;-44
2021/07/05 09:42:35;;;;;;;2.80;2.60;;;22.00;69.30;;;;;;5056643;28;20469;-44
2021/07/05 09:45:27;;;;;;;5.10;2.47;;;21.90;70.30;;;;;;5087274;27;20447;-44
2021/07/05 09:48:13;;;;;;;4.23;2.20;;;21.80;70.60;;;;;;5053026;28;20473;-45
2021/07/05 09:50:40;;;;;;;4.77;2.10;;;21.90;70.50;;;;;;5087158;28;20486;-45
2021/07/05 09:53:26;;;;;;;2.60;2.40;;;21.90;70.50;;;;;;5057733;28;20454;-45
2021/07/05 09:55:53;;;;;;;5.43;2.67;;;21.90;70.50;;;;;;5058853;28;20802;-44
2021/07/05 09:58:32;;;;;;;4.23;2.50;;;21.80;70.90;;;;;;5056733;28;20453;-44
2021/07/05 10:00:59;;;;;;;2.40;2.07;;;21.80;71.20;;;;;;5085947;28;20462;-44
2021/07/05 10:03:35;;;;;;;4.13;2.43;;;21.80;70.90;;;;;;5044741;28;20469;-44
2021/07/05 10:06:19;;;;;;;4.83;2.20;;;21.80;71.20;;;;;;5057411;28;20465;-44
2021/07/05 10:08:47;;;;;;;2.70;2.50;;;21.80;71.10;;;;;;5057975;28;20549;-44
2021/07/05 10:11:15;;;;;;;6.07;2.40;;;21.80;70.70;;;;;;5056107;28;20485;-44
2021/07/05 10:13:42;;;;;;;2.60;2.50;;;21.70;71.00;;;;;;5059953;28;20462;-44
2021/07/05 10:16:12;;;;;;;3.10;2.50;;;21.70;71.70;;;;;;5058865;28;20935;-44
2021/07/05 10:18:43;;;;;;;4.67;2.13;;;21.70;71.40;;;;;;5058702;28;21014;-44
2021/07/05 10:21:12;;;;;;;2.17;1.83;;;21.70;71.10;;;;;;5062198;28;20457;-44
2021/07/05 10:23:39;;;;;;;2.47;2.27;;;21.60;71.30;;;;;;5058219;28;20462;-44
2021/07/05 10:26:06;;;;;;;2.63;2.43;;;21.60;71.60;;;;;;5086107;28;20472;-45
2021/07/05 10:28:33;;;;;;;2.43;2.23;;;21.60;72.40;;;;;;5059671;28;20445;-45
2021/07/05 10:31:01;;;;;;;4.60;2.60;;;21.60;72.30;;;;;;5059101;28;21049;-44
2021/07/05 10:33:28;;;;;;;2.60;2.40;;;21.60;71.80;;;;;;5062073;28;20459;-44
2021/07/05 10:35:57;;;;;;;4.07;2.47;;;21.60;71.70;;;;;;5057026;28;20453;-44
2021/07/05 10:38:34;;;;;;;4.50;1.73;;;21.60;70.80;;;;;;5063900;28;20465;-44
2021/07/05 10:41:08;;;;;;;3.27;2.07;;;21.60;70.90;;;;;;5065501;28;20521;-45
2021/07/05 10:43:58;;;;;;;3.80;2.30;;;21.60;70.40;;;;;;5064748;28;20470;-44
2021/07/05 10:46:34;;;;;;;2.40;2.20;;;21.50;70.60;;;;;;5061402;28;20478;-45
2021/07/05 10:49:01;;;;;;;4.83;2.70;;;21.60;70.60;;;;;;5061163;28;20466;-44
2021/07/05 10:51:40;;;;;;;5.00;1.73;;;21.60;70.30;;;;;;5059236;28;20486;-45
2021/07/05 10:54:07;;;;;;;2.57;1.93;;;21.60;70.90;;;;;;5060774;28;20461;-45
2021/07/05 10:56:43;;;;;;;1.83;1.73;;;21.60;71.20;;;;;;5064669;28;20466;-44
2021/07/05 10:59:13;;;;;;;1.70;1.60;;;21.60;71.10;;;;;;5094415;27;20450;-45
2021/07/05 11:01:42;;;;;;;2.00;1.90;;;21.60;71.00;;;;;;5063331;28;20821;-44
2021/07/05 11:04:30;;;;;;;2.87;2.10;;;21.60;70.70;;;;;;5063495;28;20468;-44
2021/07/05 11:07:11;;;;;;;2.27;2.07;;;21.70;70.50;;;;;;5064528;28;20460;-44
2021/07/05 11:09:52;;;;;;;2.93;1.90;;;21.70;71.20;;;;;;5062646;28;20457;-45
2021/07/05 11:12:38;;;;;;;2.10;2.00;;;21.70;71.40;;;;;;5062365;28;20482;-44
2021/07/05 11:15:05;;;;;;;2.80;2.40;;;21.70;72.50;;;;;;5063405;28;20972;-45
2021/07/05 11:17:37;;;;;;;2.30;2.10;;;21.80;73.70;;;;;;5064671;28;20451;-44
2021/07/05 11:20:14;;;;;;;3.60;2.40;;;21.70;74.70;;;;;;5063811;28;20453;-45
2021/07/05 11:22:53;;;;;;;7.70;2.67;;;21.50;75.20;;;;;;5061924;28;20558;-44
2021/07/05 11:25:20;;;;;;;4.27;2.30;;;21.40;76.30;;;;;;5059626;28;20454;-44
2021/07/05 11:28:02;;;;;;;2.97;2.47;;;21.30;77.30;;;;;;5062559;28;20902;-44
2021/07/05 11:30:34;;;;;;;6.73;3.87;;;21.30;77.50;;;;;;5059958;28;20449;-44
2021/07/05 11:33:22;;;;;;;2.60;2.40;;;21.20;78.80;;;;;;5057054;28;20935;-44
2021/07/05 11:35:59;;;;;;;3.70;2.80;;;21.00;79.70;;;;;;5058847;28;20454;-43
2021/07/05 11:38:32;;;;;;;4.00;2.70;;;21.00;80.20;;;;;;5061383;28;20461;-45
2021/07/05 11:41:04;;;;;;;3.47;2.70;;;20.90;80.90;;;;;;5060084;28;20458;-44
2021/07/05 11:43:53;;;;;;;3.50;2.70;;;21.00;80.40;;;;;;5058133;28;20463;-44
2021/07/05 11:46:29;;;;;;;4.23;2.50;;;20.90;80.20;;;;;;5062868;28;20985;-44
2021/07/05 11:49:08;;;;;;;2.87;2.60;;;20.80;80.20;;;;;;5064514;28;20458;-44
2021/07/05 11:51:47;;;;;;;2.60;2.40;;;20.70;81.10;;;;;;5060805;28;20496;-44
2021/07/05 11:54:16;;;;;;;5.77;3.60;;;20.60;81.40;;;;;;5058454;28;20466;-45
2021/07/05 11:56:44;;;;;;;3.67;2.90;;;20.50;82.10;;;;;;5061954;28;20464;-44
2021/07/05 11:59:23;;;;;;;3.27;2.97;;;20.50;82.90;;;;;;5064262;28;20450;-45
2021/07/05 12:01:57;;;;;;;5.03;3.23;;;20.50;83.30;;;;;;5058201;28;20462;-44
2021/07/05 12:04:35;;;;;;;3.70;2.90;;;20.50;83.40;;;;;;5062409;28;20483;-45
2021/07/05 12:07:08;;;;;;;4.00;2.80;;;20.60;83.40;;;;;;5062857;28;20930;-45
2021/07/05 12:09:36;;;;;;;3.10;2.80;;;20.70;83.30;;;;;;5053976;28;20480;-44
2021/07/05 12:12:08;;;;;;;3.27;3.00;;;20.80;83.00;;;;;;5059233;28;20577;-45
2021/07/05 12:14:36;;;;;;;3.20;2.60;;;21.00;82.40;;;;;;5061151;28;20457;-45
2021/07/05 12:17:04;;;;;;;3.53;2.37;;;21.10;81.80;;;;;;5056430;28;20811;-46
2021/07/05 12:19:33;;;;;;;2.60;2.37;;;21.20;80.70;;;;;;5060252;28;20804;-45
2021/07/05 12:22:04;;;;;;;4.53;2.30;;;21.20;80.30;;;;;;5056385;28;20505;-45
2021/07/05 12:24:38;;;;;;;3.17;2.60;;;21.20;80.00;;;;;;5060642;28;20466;-45
2021/07/05 12:27:07;;;;;;;2.50;2.30;;;21.20;80.00;;;;;;5062236;28;20468;-45
2021/07/05 12:29:44;;;;;;;3.90;2.60;;;21.10;80.30;;;;;;5059498;28;20533;-45
2021/07/05 12:32:16;;;;;;;2.80;2.60;;;21.00;80.80;;;;;;5060062;28;20491;-45
2021/07/05 12:35:03;;;;;;;5.23;2.73;;;21.00;81.40;;;;;;5059126;28;20464;-45
2021/07/05 12:37:40;;;;;;;3.90;2.10;;;21.00;81.70;;;;;;5059228;28;20461;-45
2021/07/05 12:40:28;;;;;;;2.30;1.70;;;21.00;81.40;;;;;;5059953;28;20537;-45
2021/07/05 12:43:07;;;;;;;2.97;2.30;;;21.00;81.50;;;;;;5057793;28;20461;-45
2021/07/05 12:45:54;;;;;;;4.20;2.23;;;21.10;81.40;;;;;;5057896;28;20471;-45
2021/07/05 12:48:23;;;;;;;3.07;1.90;;;21.10;81.10;;;;;;5060168;28;20777;-45
2021/07/05 12:51:03;;;;;;;2.13;2.03;;;21.10;81.10;;;;;;5064054;28;20451;-45
2021/07/05 12:53:41;;;;;;;4.07;2.63;;;21.10;81.30;;;;;;5055537;28;20545;-45
2021/07/05 12:56:15;;;;;;;2.10;2.00;;;21.00;81.40;;;;;;5062382;28;20484;-45
2021/07/05 13:02:27;;;;;;;3.47;1.93;;;21.00;81.60;;;;;;5054274;28;20444;-45
2021/07/05 13:05:08;;;;;;;1.70;1.60;;;21.00;81.60;;;;;;5063540;28;21150;-45
2021/07/05 13:07:37;;;;;;;2.50;1.97;;;21.00;81.70;;;;;;5055744;28;21611;-46